createdAt,value
2023-04-23T00:04:40.184Z,13.84
2023-04-23T00:09:44.989Z,13.73
2023-04-23T00:14:47.424Z,13.79
2023-04-23T00:19:49.613Z,13.73
2023-04-23T00:24:51.950Z,13.76
2023-04-23T00:29:54.180Z,13.79
2023-04-23T00:34:56.982Z,13.46
2023-04-23T00:39:59.354Z,13.38
2023-04-23T00:45:02.508Z,12.85
2023-04-23T00:50:05.171Z,12.66
2023-04-23T00:55:08.981Z,12.83
2023-04-23T01:00:14.343Z,12.84
2023-04-23T01:05:18.534Z,12.96
2023-04-23T01:10:21.862Z,12.61
2023-04-23T01:15:24.572Z,12.68
2023-04-23T01:20:27.008Z,12.79
2023-04-23T01:25:29.877Z,12.82
2023-04-23T01:30:32.294Z,12.73
2023-04-23T01:35:36.719Z,12.61
2023-04-23T01:40:39.154Z,12.73
2023-04-23T01:45:42.245Z,12.55
2023-04-23T01:50:44.487Z,12.80
2023-04-23T01:55:48.384Z,12.86
2023-04-23T02:00:51.196Z,12.84
2023-04-23T02:05:55.680Z,13.01
2023-04-23T02:10:57.958Z,12.84
2023-04-23T02:16:00.655Z,12.78
2023-04-23T02:21:04.972Z,12.58
2023-04-23T02:26:08.270Z,12.61
2023-04-23T02:31:10.719Z,12.75
2023-04-23T02:36:13.116Z,12.40
2023-04-23T02:41:15.496Z,12.23
2023-04-23T02:46:17.701Z,12.57
2023-04-23T02:51:19.855Z,12.73
2023-04-23T02:56:21.997Z,12.74
2023-04-23T03:01:24.251Z,12.60
2023-04-23T03:06:27.067Z,12.65
2023-04-23T03:11:29.247Z,12.67
2023-04-23T03:16:32.498Z,12.63
2023-04-23T03:21:34.847Z,12.54
2023-04-23T03:26:37.099Z,12.24
2023-04-23T03:31:39.444Z,12.16
2023-04-23T03:36:41.717Z,12.12
2023-04-23T03:41:43.958Z,12.11
2023-04-23T03:46:46.146Z,12.18
2023-04-23T03:51:48.380Z,12.06
2023-04-23T03:56:50.647Z,11.95
2023-04-23T04:01:52.919Z,11.82
2023-04-23T04:06:55.170Z,12.01
2023-04-23T04:11:57.365Z,12.35
2023-04-23T04:16:59.669Z,12.35
2023-04-23T04:22:04.063Z,12.40
2023-04-23T04:27:06.433Z,12.32
2023-04-23T04:32:10.002Z,12.30
2023-04-23T04:37:12.157Z,12.36
2023-04-23T04:42:14.752Z,12.44
2023-04-23T04:47:17.277Z,12.40
2023-04-23T04:52:20.373Z,12.63
2023-04-23T04:57:23.323Z,12.69
2023-04-23T05:02:27.021Z,12.85
2023-04-23T05:07:29.352Z,12.79
2023-04-23T05:12:31.731Z,12.81
2023-04-23T05:17:33.913Z,12.93
2023-04-23T05:22:36.146Z,13.00
2023-04-23T05:27:38.934Z,13.30
2023-04-23T05:32:41.429Z,13.40
2023-04-23T05:37:43.626Z,13.46
2023-04-23T05:42:45.924Z,13.55
2023-04-23T05:47:48.122Z,13.62
2023-04-23T05:52:50.449Z,13.75
2023-04-23T05:57:52.703Z,13.95
2023-04-23T06:02:54.990Z,14.12
2023-04-23T06:07:57.257Z,14.15
2023-04-23T06:12:59.573Z,13.99
2023-04-23T06:18:01.954Z,14.22
2023-04-23T06:23:04.229Z,14.38
2023-04-23T06:28:06.848Z,14.45
2023-04-23T06:33:09.606Z,14.69
2023-04-23T06:38:11.833Z,14.95
2023-04-23T06:43:15.151Z,15.01
2023-04-23T06:48:18.893Z,14.77
2023-04-23T06:53:22.518Z,15.25
2023-04-23T06:58:31.407Z,15.23
2023-04-23T07:03:33.994Z,15.25
2023-04-23T07:08:36.321Z,15.64
2023-04-23T07:13:39.323Z,15.73
2023-04-23T07:18:41.689Z,15.80
2023-04-23T07:23:43.926Z,16.07
2023-04-23T07:28:47.836Z,16.13
2023-04-23T07:33:50.166Z,16.15
2023-04-23T07:38:52.480Z,16.61
2023-04-23T07:43:54.873Z,16.70
2023-04-23T07:48:57.155Z,16.83
2023-04-23T07:53:59.392Z,16.69
2023-04-23T07:59:01.760Z,16.98
2023-04-23T08:04:04.236Z,17.33
2023-04-23T08:09:06.873Z,17.65
2023-04-23T08:14:09.215Z,17.35
2023-04-23T08:19:12.240Z,17.25
2023-04-23T08:24:14.475Z,18.12
2023-04-23T08:29:16.846Z,18.35
2023-04-23T08:34:19.012Z,18.40
2023-04-23T08:39:21.277Z,18.41
2023-04-23T08:44:26.362Z,18.81
2023-04-23T08:49:33.864Z,19.10
2023-04-23T08:54:41.649Z,19.14
2023-04-23T08:59:44.713Z,19.02
2023-04-23T09:04:49.565Z,18.59
2023-04-23T09:09:53.498Z,18.96
2023-04-23T09:14:56.258Z,19.20
2023-04-23T09:19:59.558Z,19.51
2023-04-23T09:25:02.628Z,19.49
2023-04-23T09:30:08.627Z,19.59
2023-04-23T09:35:14.254Z,19.84
2023-04-23T09:40:20.429Z,19.93
2023-04-23T09:45:23.194Z,20.14
2023-04-23T09:50:39.756Z,20.11
2023-04-23T09:55:44.069Z,20.20
2023-04-23T10:00:46.489Z,20.26
2023-04-23T10:06:00.288Z,20.17
2023-04-23T10:11:17.785Z,20.78
2023-04-23T10:16:26.819Z,20.96
2023-04-23T10:21:42.935Z,20.84
2023-04-23T10:26:58.410Z,20.76
2023-04-23T10:32:03.210Z,20.49
2023-04-23T10:37:06.629Z,20.91
2023-04-23T10:42:08.994Z,21.02
2023-04-23T10:47:17.149Z,21.12
2023-04-23T10:52:22.249Z,20.83
2023-04-23T10:57:25.925Z,20.78
2023-04-23T11:02:45.393Z,21.04
2023-04-23T11:13:24.634Z,21.66
2023-04-23T11:18:28.164Z,22.08
2023-04-23T11:23:34.511Z,22.54
2023-04-23T11:28:39.646Z,22.46
2023-04-23T11:33:41.842Z,22.68
2023-04-23T11:38:44.062Z,23.14
2023-04-23T11:43:47.237Z,23.11
2023-04-23T11:48:49.702Z,23.43
2023-04-23T11:53:51.864Z,23.75
2023-04-23T11:59:04.151Z,24.05
2023-04-23T12:04:17.389Z,23.92
2023-04-23T12:09:22.871Z,23.79
2023-04-23T12:14:30.670Z,23.82
2023-04-23T12:19:33.140Z,23.84
2023-04-23T12:24:51.781Z,23.14
2023-04-23T12:30:04.113Z,23.03
2023-04-23T12:35:10.294Z,23.58
2023-04-23T12:40:12.548Z,24.02
2023-04-23T12:45:14.703Z,24.51
2023-04-23T12:50:17.002Z,24.85
2023-04-23T12:55:19.298Z,24.50
2023-04-23T13:00:21.642Z,24.34
2023-04-23T13:05:24.544Z,24.76
2023-04-23T13:10:26.875Z,25.03
2023-04-23T13:15:29.216Z,25.13
2023-04-23T13:20:31.438Z,25.35
2023-04-23T13:25:33.680Z,25.36
2023-04-23T13:30:35.973Z,25.58
2023-04-23T13:35:38.310Z,25.44
2023-04-23T13:40:40.655Z,24.26
2023-04-23T13:45:43.019Z,24.67
2023-04-23T13:50:45.798Z,24.17
2023-04-23T13:55:48.019Z,24.13
2023-04-23T14:00:50.472Z,24.78
2023-04-23T14:05:52.690Z,25.15
2023-04-23T14:10:54.945Z,25.68
2023-04-23T14:15:57.193Z,25.89
2023-04-23T14:20:59.459Z,25.66
2023-04-23T14:26:09.588Z,25.91
2023-04-23T14:31:11.809Z,25.98
2023-04-23T14:36:14.325Z,25.30
2023-04-23T14:41:18.472Z,25.44
2023-04-23T14:46:20.722Z,26.32
2023-04-23T14:51:23.690Z,26.42
2023-04-23T14:56:26.015Z,25.92
2023-04-23T15:01:28.314Z,26.46
2023-04-23T15:06:30.612Z,26.84
2023-04-23T15:11:33.462Z,25.98
2023-04-23T15:16:47.713Z,28.11
2023-04-23T15:21:51.320Z,31.10
2023-04-23T15:26:55.091Z,30.60
2023-04-23T15:31:58.708Z,31.18
2023-04-23T15:37:01.115Z,32.91
2023-04-23T15:42:03.742Z,34.15
2023-04-23T15:47:06.067Z,34.96
2023-04-23T15:52:08.438Z,35.14
2023-04-23T15:57:11.124Z,35.15
2023-04-23T16:02:20.007Z,34.93
2023-04-23T16:07:22.406Z,34.80
2023-04-23T16:12:24.860Z,34.57
2023-04-23T16:17:28.352Z,34.83
2023-04-23T16:22:30.788Z,34.05
2023-04-23T16:27:33.306Z,33.11
2023-04-23T16:32:36.331Z,31.26
2023-04-23T16:37:38.943Z,29.24
2023-04-23T16:42:41.414Z,27.53
2023-04-23T16:47:46.480Z,26.36
2023-04-23T16:52:48.698Z,25.45
2023-04-23T16:57:50.949Z,24.87
2023-04-23T17:02:53.337Z,24.26
2023-04-23T17:07:55.726Z,23.56
2023-04-23T17:12:57.948Z,23.35
2023-04-23T17:18:00.263Z,22.99
2023-04-23T17:23:03.159Z,22.59
2023-04-23T17:28:05.355Z,22.42
2023-04-23T17:33:07.633Z,22.04
2023-04-23T17:38:10.034Z,21.63
2023-04-23T17:43:12.640Z,21.64
2023-04-23T17:48:16.161Z,21.62
2023-04-23T17:53:18.862Z,21.30
2023-04-23T17:58:21.869Z,21.27
2023-04-23T18:03:24.284Z,21.05
2023-04-23T18:08:26.786Z,20.97
2023-04-23T18:13:29.143Z,20.88
2023-04-23T18:18:31.316Z,20.80
2023-04-23T18:23:36.236Z,20.53
2023-04-23T18:28:38.579Z,20.47
2023-04-23T18:33:52.634Z,20.25
2023-04-23T18:38:55.019Z,20.26
2023-04-23T18:44:00.162Z,20.02
2023-04-23T18:49:05.133Z,20.20
2023-04-23T18:54:07.637Z,19.97
2023-04-23T18:59:10.228Z,19.76
2023-04-23T19:04:12.759Z,19.71
2023-04-23T19:09:15.270Z,19.64
2023-04-23T19:14:19.414Z,19.48
2023-04-23T19:19:21.740Z,19.46
2023-04-23T19:24:23.995Z,19.46
2023-04-23T19:29:26.328Z,19.17
2023-04-23T19:34:28.588Z,18.96
2023-04-23T19:39:30.913Z,19.10
2023-04-23T19:44:33.500Z,18.88
2023-04-23T19:49:35.807Z,18.81
2023-04-23T19:54:38.798Z,18.92
2023-04-23T19:59:41.300Z,18.78
2023-04-23T20:04:46.056Z,18.74
2023-04-23T20:09:48.345Z,18.69
2023-04-23T20:14:50.898Z,18.62
2023-04-23T20:19:54.211Z,18.54
2023-04-23T20:24:56.919Z,18.67
2023-04-23T20:29:59.570Z,18.49
2023-04-23T20:35:02.640Z,18.23
2023-04-23T20:40:06.152Z,18.39
2023-04-23T20:45:09.014Z,18.40
2023-04-23T20:50:11.814Z,18.40
2023-04-23T20:55:14.084Z,18.15
2023-04-23T21:00:16.703Z,18.06
2023-04-23T21:05:18.945Z,18.01
2023-04-23T21:10:27.561Z,18.02
2023-04-23T21:15:31.967Z,17.82
2023-04-23T21:20:34.267Z,17.61
2023-04-23T21:25:36.524Z,17.76
2023-04-23T21:31:01.785Z,17.82
2023-04-23T21:36:04.836Z,17.80
2023-04-23T21:41:07.975Z,17.77
2023-04-23T21:46:11.484Z,17.56
2023-04-23T21:51:13.866Z,17.82
2023-04-23T21:56:16.905Z,17.94
2023-04-23T22:01:19.186Z,17.77
2023-04-23T22:06:21.680Z,17.70
2023-04-23T22:11:24.078Z,17.84
2023-04-23T22:16:28.759Z,17.63
2023-04-23T22:21:31.771Z,17.61
2023-04-23T22:26:36.434Z,17.42
2023-04-23T22:31:38.782Z,17.52
2023-04-23T22:36:43.579Z,17.65
2023-04-23T22:41:46.276Z,17.65
2023-04-23T22:46:49.202Z,17.57
2023-04-23T22:51:51.888Z,17.51
2023-04-23T22:56:54.393Z,17.38
2023-04-23T23:01:56.750Z,17.59
2023-04-23T23:06:59.102Z,17.45
2023-04-23T23:12:03.502Z,17.52
2023-04-23T23:17:08.409Z,17.53
2023-04-23T23:22:10.714Z,17.72
2023-04-23T23:27:12.938Z,17.66
2023-04-23T23:32:15.114Z,17.47
2023-04-23T23:37:17.809Z,17.64
2023-04-23T23:42:20.038Z,17.53
2023-04-23T23:47:22.411Z,17.62
2023-04-23T23:52:24.738Z,17.14
2023-04-23T23:57:26.958Z,17.26
